Hlavní strana
METAR-TAF:

METAR-TAF

Letiště :

Orenburg, Rusko

zeměpisná šířka: 51-46-48N, zeměpisná délka: 055-07-12E, výška: 109 m

Aktuální stav počasí

Zpráva byla vytvořena před 20 minutami, v 09:00 UTC
Východoseverovýchodní vítr 4 kt
Teplota -6°C
Vlhkost vzduchu 79%
Tlak 1025 hPa
Viditelnost 10 km a více
Žádná oblačnost pod 1500 m, nevyskytují se cumulonimby.

METAR: UWOO 270900Z 06002MPS CAVOK M06/M09 Q1025 R08/850541 NOSIG RMK QFE758/1011

Čas: 14:20 (09:20 UTC)

Předpověď počasí

Zpráva byla vytvořena před 1 hodinou a 32 minutami, v 07:48 UTC
Předpověď platná od 27 v 09 UTC do 28 v 09 UTC
Východní vítr 6 kt
Viditelnost: 6000 m
Skoro jasno ve výšce 500 ft
Zataženo ve výšce 1600 ft
slabé sněžení
Dočasný
od 27 v 09 UTC do 28 v 09 UTC
vítr z různých směrů 2 kt
Viditelnost: 0200 m
ve výšce 200 ft
mrznoucí mlha

TAF: UWOO 270748Z 2709/2809 10003MPS 6000 -SN FEW005 OVC016 TXM04/2710Z TNM12/2803Z TEMPO 2709/2809 VRB01MPS 0200 FZFG VV002

Stav a předpovědi počasí z více než 4 000 letišť (zprávy METAR a TAF).

Červené a žluté tečky na mapě představují dostupné meteorologické stanice.

Když kurzor umístíte na tečku, zobrazí se název stanice.

Pak kliknutím zobrazíte stav a předpověď počasí.

Chcete-li změnit mapu, kliknutím na zelené tlačítko se znaménkem +mapu přiblížíte, kliknutím na zelené tlačítko se znaménkem – mapu oddálíte a kliknutím na zelené šipky přejdete na sousední mapy.


METAR-TAF: